Time;durP1;ratioP1;P1;durP2;ratioP2;P2;SDS_P1;SDS_P2;PMS_P1;PMS_P2;Temp;Humidity;BMP_temperature;BMP_pressure;BME280_temperature;BME280_humidity;BME280_pressure;Samples;Min_cycle;Max_cycle;Signal;HPM_P1;HPM_P2
2022/09/14 00:01:43;;;;;;;;;14.00;12.00;;;;;22.53;42.25;99035.75;5070101;28;8846;-79
2022/09/14 00:04:15;;;;;;;;;16.60;16.00;;;;;22.57;43.23;99031.97;5050913;28;8850;-80
2022/09/14 00:06:44;;;;;;;;;14.20;13.40;;;;;22.65;42.78;99025.34;5034375;28;10132;-82
2022/09/14 00:09:16;;;;;;;;;14.20;14.20;;;;;22.71;42.27;99017.00;5102648;28;8985;-81
2022/09/14 00:11:44;;;;;;;;;13.60;12.00;;;;;22.72;42.01;99011.59;5068468;28;8948;-79
2022/09/14 00:14:15;;;;;;;;;11.00;11.00;;;;;22.73;41.86;99015.97;5069760;28;8842;-80
2022/09/14 00:16:44;;;;;;;;;10.40;10.40;;;;;22.73;41.74;99001.81;5085474;28;8862;-77
2022/09/14 00:19:19;;;;;;;;;12.00;12.00;;;;;22.81;41.74;99015.50;5085080;28;8960;-79
2022/09/14 00:21:51;;;;;;;;;15.00;14.80;;;;;22.79;41.66;99020.06;5085137;28;8854;-79
2022/09/14 00:24:20;;;;;;;;;12.80;12.80;;;;;22.74;41.66;99006.16;5069450;28;8838;-79
2022/09/14 00:26:49;;;;;;;;;11.00;10.60;;;;;22.77;41.76;99006.84;5069677;28;9665;-79
2022/09/14 00:29:19;;;;;;;;;14.20;13.60;;;;;22.85;41.68;99001.06;5055515;28;8850;-78
2022/09/14 00:31:48;;;;;;;;;2.60;2.60;;;;;22.84;41.50;99004.69;5050754;28;8877;-79
2022/09/14 00:34:18;;;;;;;;;14.00;13.80;;;;;22.89;41.68;99007.06;5069543;28;8872;-78
2022/09/14 00:36:49;;;;;;;;;14.40;12.60;;;;;22.70;41.99;99009.97;5085210;28;8866;-81
2022/09/14 00:39:22;;;;;;;;;14.00;14.00;;;;;22.76;41.85;99005.16;5074936;28;8863;-78
2022/09/14 00:41:51;;;;;;;;;10.20;10.00;;;;;22.72;41.61;99000.09;5102786;28;8893;-77
2022/09/14 00:45:01;;;;;;;;;12.00;11.80;;;;;22.84;41.45;98986.09;5080465;28;8832;-79
2022/09/14 00:47:31;;;;;;;;;13.40;11.80;;;;;22.70;42.15;98978.94;5089758;28;9071;-80
2022/09/14 00:50:03;;;;;;;;;11.60;10.80;;;;;22.65;42.30;98985.47;5085390;28;8929;-79
2022/09/14 00:52:34;;;;;;;;;10.80;10.40;;;;;22.58;42.49;98996.44;5033664;28;8896;-79
2022/09/14 00:55:07;;;;;;;;;10.40;10.40;;;;;22.47;42.45;98990.91;5080527;28;9573;-79
2022/09/14 00:57:40;;;;;;;;;9.40;9.40;;;;;22.55;42.25;98994.00;5053986;28;8894;-78
2022/09/14 01:00:14;;;;;;;;;11.00;11.00;;;;;22.73;42.07;98994.69;5086904;28;8949;-80
2022/09/14 01:02:42;;;;;;;;;12.00;10.40;;;;;22.73;42.43;98992.03;5090070;28;9594;-78
2022/09/14 01:05:12;;;;;;;;;9.00;9.00;;;;;22.55;42.33;98996.66;5095945;28;8832;-79
2022/09/14 01:08:08;;;;;;;;;9.80;9.80;;;;;22.69;42.43;98998.47;5086953;28;8858;-78
2022/09/14 01:10:50;;;;;;;;;11.00;11.00;;;;;22.70;42.31;98991.34;5033514;28;8861;-81
2022/09/14 01:13:28;;;;;;;;;10.00;10.00;;;;;22.58;42.83;98996.44;5068804;28;8883;-80
2022/09/14 01:16:07;;;;;;;;;10.20;10.20;;;;;22.62;42.50;98997.13;5068805;28;8838;-80
2022/09/14 01:18:39;;;;;;;;;10.20;10.20;;;;;22.57;42.65;98992.09;5080308;28;8855;-81
2022/09/14 01:21:12;;;;;;;;;10.60;10.60;;;;;22.39;43.18;98998.47;5104569;28;8859;-81
2022/09/14 01:23:49;;;;;;;;;9.00;9.00;;;;;22.42;43.21;98993.00;5088476;28;8855;-79
2022/09/14 01:26:58;;;;;;;;;10.20;10.00;;;;;22.49;42.85;98980.19;5104920;28;8836;-80
2022/09/14 01:29:33;;;;;;;;;8.60;8.60;;;;;22.36;43.19;98975.63;5088964;28;8843;-79
2022/09/14 01:32:08;;;;;;;;;8.80;8.80;;;;;22.17;43.51;98969.59;5089173;28;8910;-81
2022/09/14 01:34:40;;;;;;;;;10.80;9.40;;;;;21.93;44.33;98970.06;5073496;28;8850;-80
2022/09/14 01:37:13;;;;;;;;;7.20;7.20;;;;;22.03;44.37;98964.25;5070998;28;8970;-79
2022/09/14 01:39:45;;;;;;;;;8.20;8.20;;;;;22.03;44.18;98957.13;5072427;28;8838;-79
2022/09/14 01:42:17;;;;;;;;;8.00;8.00;;;;;21.97;44.16;98955.69;5072150;28;9967;-81
2022/09/14 01:44:51;;;;;;;;;7.40;7.40;;;;;22.01;44.18;98951.06;5050447;28;8874;-79
2022/09/14 01:47:25;;;;;;;;;7.80;7.80;;;;;21.96;44.26;98945.13;5070699;28;8862;-79
2022/09/14 01:49:59;;;;;;;;;9.20;9.20;;;;;22.13;44.11;98945.03;5097777;27;8852;-79
2022/09/14 01:52:33;;;;;;;;;12.00;10.40;;;;;22.22;43.82;98953.41;5087451;28;8839;-79
2022/09/14 01:55:09;;;;;;;;;6.40;6.40;;;;;22.33;43.60;98954.53;5087398;28;8856;-79
2022/09/14 01:57:44;;;;;;;;;9.20;9.20;;;;;22.34;43.98;98942.97;5088276;28;8956;-78
2022/09/14 02:00:17;;;;;;;;;9.00;9.00;;;;;22.49;43.33;98946.50;5103890;28;8882;-79
2022/09/14 02:02:49;;;;;;;;;10.60;10.00;;;;;22.47;43.60;98944.91;5086544;28;8855;-79
2022/09/14 02:05:24;;;;;;;;;11.00;11.00;;;;;22.43;43.65;98938.06;5078769;28;8842;-79
2022/09/14 02:07:54;;;;;;;;;10.80;9.60;;;;;22.32;43.87;98944.84;5016473;28;10104;-78
2022/09/14 02:10:23;;;;;;;;;9.00;8.00;;;;;22.34;43.84;98940.31;5083438;28;8889;-79
2022/09/14 02:12:52;;;;;;;;;9.00;8.80;;;;;22.55;43.72;98939.97;5066405;28;8870;-80
2022/09/14 02:15:24;;;;;;;;;10.40;9.20;;;;;22.65;43.16;98943.81;5067808;28;8862;-79
2022/09/14 02:17:54;;;;;;;;;11.00;10.00;;;;;22.77;43.06;98939.53;5067457;28;8891;-80
2022/09/14 02:20:28;;;;;;;;;1.20;1.20;;;;;22.55;43.20;98948.81;5049851;28;8969;-79
2022/09/14 02:22:57;;;;;;;;;7.80;7.80;;;;;22.52;43.32;98942.81;5056125;28;8973;-79
2022/09/14 02:25:26;;;;;;;;;9.00;9.00;;;;;22.55;43.49;98938.19;5069599;28;8876;-79
2022/09/14 02:27:54;;;;;;;;;9.20;8.80;;;;;22.44;43.70;98947.72;5086502;28;8871;-80
2022/09/14 02:30:24;;;;;;;;;7.00;7.00;;;;;22.54;43.61;98933.81;5087487;28;8948;-79
2022/09/14 02:33:07;;;;;;;;;7.60;7.20;;;;;22.55;43.35;98940.84;5081826;28;8907;-78
2022/09/14 02:35:40;;;;;;;;;8.00;8.00;;;;;22.57;43.34;98940.72;5070862;28;9119;-79
2022/09/14 02:38:18;;;;;;;;;8.20;8.20;;;;;22.44;43.66;98940.63;5071313;28;8876;-80
2022/09/14 02:40:54;;;;;;;;;8.00;8.00;;;;;22.49;43.81;98935.88;5106868;28;8902;-80
2022/09/14 02:43:33;;;;;;;;;5.80;5.80;;;;;22.33;44.12;98935.09;5086503;28;9658;-80
2022/09/14 02:46:14;;;;;;;;;7.00;7.00;;;;;22.30;44.40;98930.78;5071061;28;8870;-79
2022/09/14 02:48:50;;;;;;;;;8.00;7.60;;;;;22.16;44.45;98934.22;5088336;28;8862;-79
2022/09/14 02:51:26;;;;;;;;;8.80;6.80;;;;;22.28;44.41;98926.53;5088648;28;8846;-79
2022/09/14 02:54:01;;;;;;;;;9.60;8.40;;;;;22.11;44.67;98923.00;5093298;27;9442;-80
2022/09/14 02:56:30;;;;;;;;;8.00;7.20;;;;;21.97;45.09;98915.00;5058648;28;8897;-79
2022/09/14 02:58:59;;;;;;;;;8.60;8.60;;;;;21.86;45.41;98922.72;5062150;28;8969;-80
2022/09/14 03:01:29;;;;;;;;;9.40;9.20;;;;;22.03;45.03;98909.34;5032277;28;9021;-80
2022/09/14 03:03:57;;;;;;;;;6.20;5.40;;;;;21.99;44.99;98921.09;5064953;28;8861;-78
2022/09/14 03:06:26;;;;;;;;;9.60;9.60;;;;;21.87;45.03;98914.69;5048322;28;8858;-80
2022/09/14 03:08:54;;;;;;;;;7.60;7.60;;;;;21.92;45.21;98919.72;5064672;28;8917;-78
2022/09/14 03:11:23;;;;;;;;;5.20;5.00;;;;;22.02;44.99;98917.38;5056033;28;8871;-81
2022/09/14 03:13:51;;;;;;;;;6.40;5.60;;;;;22.12;44.89;98915.91;5067850;28;8886;-79
2022/09/14 03:16:20;;;;;;;;;5.20;5.20;;;;;22.27;44.56;98919.50;5051835;28;8879;-80
2022/09/14 03:18:50;;;;;;;;;9.60;9.60;;;;;22.27;44.40;98916.84;4999240;28;8877;-80
2022/09/14 03:21:19;;;;;;;;;9.00;9.00;;;;;22.17;44.69;98916.50;5047744;28;8845;-80
2022/09/14 03:23:50;;;;;;;;;11.80;9.80;;;;;22.33;44.19;98925.31;5048068;28;8862;-79
2022/09/14 03:26:22;;;;;;;;;8.20;8.20;;;;;22.05;45.12;98931.34;5048680;28;8849;-79
2022/09/14 03:28:52;;;;;;;;;6.00;6.00;;;;;22.15;44.73;98932.50;5051145;28;8862;-79
2022/09/14 03:31:21;;;;;;;;;6.00;6.00;;;;;22.32;44.43;98939.53;5069798;28;8970;-79
2022/09/14 03:33:55;;;;;;;;;7.40;7.40;;;;;22.52;44.23;98950.81;5103837;28;8881;-80
2022/09/14 03:36:25;;;;;;;;;7.00;7.00;;;;;22.28;44.67;98947.78;5103879;28;8838;-81
2022/09/14 03:38:57;;;;;;;;;8.60;7.00;;;;;22.26;44.63;98939.03;5084267;28;8871;-82
2022/09/14 03:41:26;;;;;;;;;7.00;7.00;;;;;22.42;44.16;98939.88;5090757;28;9704;-79
2022/09/14 03:43:54;;;;;;;;;9.60;9.20;;;;;22.42;44.21;98937.22;5086101;28;9019;-78
2022/09/14 03:46:24;;;;;;;;;11.00;11.00;;;;;22.45;44.15;98931.69;5105561;27;8953;-80
2022/09/14 03:48:55;;;;;;;;;5.40;5.40;;;;;22.20;44.45;98925.13;5073415;28;8969;-79
2022/09/14 03:51:24;;;;;;;;;7.80;7.80;;;;;22.07;44.70;98925.94;5088376;28;8882;-79
2022/09/14 03:53:53;;;;;;;;;7.40;7.00;;;;;22.11;44.75;98925.66;5086802;28;8850;-81
2022/09/14 03:56:22;;;;;;;;;5.60;5.60;;;;;22.17;44.70;98924.44;5085668;28;8854;-78
2022/09/14 03:58:51;;;;;;;;;9.60;9.00;;;;;22.33;44.26;98927.97;5072619;28;8881;-79
2022/09/14 04:01:21;;;;;;;;;13.60;12.80;;;;;22.40;44.09;98923.16;5106276;28;8851;-80
2022/09/14 04:03:51;;;;;;;;;8.40;8.00;;;;;22.53;43.92;98912.63;5091694;28;8839;-79
2022/09/14 04:06:21;;;;;;;;;6.00;6.00;;;;;22.39;44.27;98921.44;5094404;28;8885;-78
2022/09/14 04:08:49;;;;;;;;;7.20;6.40;;;;;22.60;43.85;98923.75;5077552;28;8850;-80
2022/09/14 04:11:21;;;;;;;;;7.60;7.20;;;;;22.51;44.01;98912.75;5073606;28;8866;-81
2022/09/14 04:13:50;;;;;;;;;6.60;6.00;;;;;22.41;43.98;98911.56;5073258;28;8866;-79
2022/09/14 04:16:20;;;;;;;;;7.00;6.60;;;;;22.46;43.96;98906.00;5076457;28;8905;-80
2022/09/14 04:18:49;;;;;;;;;11.40;11.40;;;;;22.37;44.22;98920.69;5106877;28;8855;-81
2022/09/14 04:21:20;;;;;;;;;7.00;6.60;;;;;22.51;43.93;98910.09;5087137;28;8896;-79
2022/09/14 04:23:53;;;;;;;;;11.60;11.60;;;;;22.53;43.93;98920.59;5068755;28;8862;-78
2022/09/14 04:26:42;;;;;;;;;7.60;7.60;;;;;22.53;43.68;98912.63;5102374;28;8992;-79
2022/09/14 04:29:11;;;;;;;;;8.60;7.60;;;;;22.72;43.18;98921.22;5085665;28;8885;-79
2022/09/14 04:31:40;;;;;;;;;11.00;11.00;;;;;22.73;43.36;98927.38;5070417;28;8862;-79
2022/09/14 04:34:11;;;;;;;;;14.00;14.00;;;;;22.76;43.30;98927.22;5080125;28;8851;-79
2022/09/14 04:36:40;;;;;;;;;9.40;9.40;;;;;22.86;43.02;98927.50;5105126;28;8855;-81
2022/09/14 04:39:12;;;;;;;;;9.40;9.40;;;;;22.86;43.16;98931.00;5082362;28;8880;-80
2022/09/14 04:41:41;;;;;;;;;8.80;8.80;;;;;22.91;42.87;98930.72;5053844;28;8859;-80
2022/09/14 04:44:10;;;;;;;;;6.80;6.00;;;;;22.81;42.90;98924.25;5090956;28;8909;-81
2022/09/14 04:46:41;;;;;;;;;7.00;7.00;;;;;22.77;43.04;98932.41;5096028;28;8851;-81
2022/09/14 04:49:15;;;;;;;;;5.40;5.40;;;;;22.88;42.65;98926.44;5110574;28;8929;-79
2022/09/14 04:51:44;;;;;;;;;8.80;7.80;;;;;22.91;42.71;98923.63;5091546;28;8881;-80
2022/09/14 04:54:16;;;;;;;;;8.60;8.00;;;;;22.96;42.88;98933.97;5091944;28;8840;-79
2022/09/14 04:56:45;;;;;;;;;9.40;9.40;;;;;23.09;42.55;98916.31;5094583;28;8846;-80
2022/09/14 04:59:15;;;;;;;;;6.20;6.00;;;;;23.12;42.19;98917.97;5112275;28;8921;-79
2022/09/14 05:01:46;;;;;;;;;4.80;4.80;;;;;23.13;42.05;98924.97;5083638;28;8834;-80
2022/09/14 05:04:15;;;;;;;;;10.00;8.80;;;;;23.21;42.22;98938.63;5083250;28;8868;-79
2022/09/14 05:06:44;;;;;;;;;9.60;8.80;;;;;23.26;42.35;98933.88;5069670;28;8878;-79
2022/09/14 05:09:16;;;;;;;;;9.80;9.80;;;;;23.39;41.99;98930.47;5068307;28;8854;-82
2022/09/14 05:11:45;;;;;;;;;10.20;10.20;;;;;23.37;42.06;98927.91;5072701;28;8904;-79
2022/09/14 05:14:14;;;;;;;;;8.20;7.80;;;;;23.37;41.95;98941.22;5071389;28;8933;-79
2022/09/14 05:16:43;;;;;;;;;13.40;11.80;;;;;23.36;42.03;98934.16;5068969;28;8842;-80
2022/09/14 05:19:14;;;;;;;;;9.40;9.40;;;;;23.61;41.85;98916.63;5033887;28;8866;-80
2022/09/14 05:21:42;;;;;;;;;9.60;9.00;;;;;23.92;41.13;98905.72;5069469;28;8834;-83
2022/09/14 05:24:15;;;;;;;;;7.80;6.60;;;;;24.12;40.87;98899.09;5082737;28;8859;-80
2022/09/14 05:26:45;;;;;;;;;15.40;15.40;;;;;24.33;40.98;98903.94;5086567;28;8846;-79
2022/09/14 05:29:16;;;;;;;;;17.60;17.60;;;;;24.22;40.78;98909.13;5086245;28;8876;-81
2022/09/14 05:31:45;;;;;;;;;16.80;16.80;;;;;24.30;41.04;98909.47;5072933;28;8843;-81
2022/09/14 05:34:16;;;;;;;;;12.20;12.20;;;;;24.26;40.74;98911.47;5049725;28;9860;-80
2022/09/14 05:36:44;;;;;;;;;17.60;15.40;;;;;24.39;40.43;98910.66;5062626;28;8918;-81
2022/09/14 05:39:14;;;;;;;;;12.00;12.00;;;;;24.55;40.47;98910.50;5054298;28;8878;-82
2022/09/14 05:41:49;;;;;;;;;13.60;12.80;;;;;24.67;40.37;98904.34;5028013;28;9051;-80
2022/09/14 05:44:17;;;;;;;;;9.80;9.80;;;;;24.87;40.43;98918.94;5075143;28;8862;-80
2022/09/14 05:46:46;;;;;;;;;13.40;12.80;;;;;25.12;40.51;98910.03;5064876;28;9010;-80
2022/09/14 05:49:14;;;;;;;;;15.80;12.00;;;;;25.31;40.32;98906.94;5049852;28;8851;-84
2022/09/14 05:51:43;;;;;;;;;13.80;12.80;;;;;25.37;39.34;98903.88;5067637;28;8925;-81
2022/09/14 05:54:12;;;;;;;;;34.25;30.75;;;;;25.58;40.29;98900.59;5082099;28;8886;-81
2022/09/14 05:56:42;;;;;;;;;19.60;15.80;;;;;25.70;39.37;98905.03;5052701;28;8858;-81
2022/09/14 05:59:10;;;;;;;;;19.80;19.60;;;;;25.86;40.12;98900.28;5065654;28;8937;-82
2022/09/14 06:01:39;;;;;;;;;14.00;13.40;;;;;25.77;38.58;98892.09;5067130;28;9615;-83
2022/09/14 06:04:11;;;;;;;;;9.20;9.20;;;;;25.62;38.25;98902.94;5067973;28;8838;-84
2022/09/14 06:06:39;;;;;;;;;9.40;9.20;;;;;25.87;37.87;98909.13;5075832;28;8870;-83
2022/09/14 06:09:08;;;;;;;;;10.20;8.60;;;;;25.93;38.00;98905.19;5087655;28;8887;-81
2022/09/14 06:11:36;;;;;;;;;9.60;9.60;;;;;26.06;37.57;98901.47;5086010;28;8876;-82
2022/09/14 06:14:07;;;;;;;;;7.00;7.00;;;;;26.14;37.68;98908.91;5086048;28;8882;-83
2022/09/14 06:16:35;;;;;;;;;26.40;26.40;;;;;26.04;37.63;98903.41;5083016;28;8964;-84
2022/09/14 06:19:04;;;;;;;;;11.60;11.60;;;;;26.10;37.84;98906.59;5050146;28;9627;-82
2022/09/14 06:21:34;;;;;;;;;9.40;9.20;;;;;26.15;37.74;98904.44;5067519;28;8983;-84
2022/09/14 06:24:03;;;;;;;;;13.40;12.00;;;;;26.44;37.41;98897.72;5105906;28;9061;-82
2022/09/14 06:26:32;;;;;;;;;9.00;9.00;;;;;26.73;37.31;98891.13;5088836;28;10009;-82
2022/09/14 06:29:01;;;;;;;;;9.80;8.60;;;;;26.88;36.98;98887.25;5082044;28;8860;-82
2022/09/14 06:31:31;;;;;;;;;8.60;8.60;;;;;26.85;36.78;98892.84;5067833;28;8976;-85
2022/09/14 06:34:00;;;;;;;;;5.20;5.20;;;;;26.97;36.00;98891.03;5070162;28;8908;-80
2022/09/14 06:36:29;;;;;;;;;6.80;6.80;;;;;26.86;36.05;98891.84;5074473;28;8921;-80
2022/09/14 06:39:00;;;;;;;;;8.60;5.20;;;;;27.07;35.71;98885.78;5108203;28;8873;-81
2022/09/14 06:41:33;;;;;;;;;8.00;8.00;;;;;27.40;35.81;98880.44;5072886;28;9089;-81
2022/09/14 06:44:02;;;;;;;;;11.20;11.00;;;;;27.63;35.77;98879.56;5076644;28;8850;-83
2022/09/14 06:46:33;;;;;;;;;11.60;11.20;;;;;27.89;35.38;98875.59;5088016;28;8968;-79
2022/09/14 06:49:04;;;;;;;;;10.20;10.20;;;;;28.11;36.87;98871.97;5086608;28;8991;-85
2022/09/14 06:51:35;;;;;;;;;10.80;10.00;;;;;28.27;36.78;98873.34;5069123;28;8859;-80
2022/09/14 06:54:05;;;;;;;;;9.40;9.00;;;;;28.43;36.59;98884.50;5086193;28;8840;-84
2022/09/14 06:56:36;;;;;;;;;10.60;10.60;;;;;28.55;36.64;98885.31;5087403;28;8863;-82
2022/09/14 06:59:06;;;;;;;;;8.20;8.00;;;;;28.69;36.35;98892.16;5052102;28;8871;-81
2022/09/14 07:01:36;;;;;;;;;6.80;6.60;;;;;28.84;35.71;98900.72;5086069;28;8859;-80
2022/09/14 07:04:05;;;;;;;;;8.00;8.00;;;;;28.97;35.47;98904.03;5086370;28;8883;-83
2022/09/14 07:06:40;;;;;;;;;10.40;10.40;;;;;29.09;35.61;98902.97;5086525;28;9553;-83
2022/09/14 07:09:09;;;;;;;;;9.80;9.80;;;;;29.15;35.60;98905.13;5087109;28;8902;-80
2022/09/14 07:11:38;;;;;;;;;11.20;11.20;;;;;29.26;35.50;98906.00;5087018;28;8874;-80
2022/09/14 07:14:08;;;;;;;;;11.60;10.00;;;;;29.34;34.88;98900.84;5104248;28;8863;-82
2022/09/14 07:16:58;;;;;;;;;9.60;9.60;;;;;29.38;34.63;98901.38;5119404;27;8902;-80
2022/09/14 07:19:26;;;;;;;;;7.80;7.80;;;;;29.40;33.35;98908.34;5055413;28;8827;-82
2022/09/14 07:21:55;;;;;;;;;7.00;7.00;;;;;29.43;32.45;98907.19;5051998;28;9621;-80
2022/09/14 07:24:23;;;;;;;;;8.20;8.20;;;;;29.57;34.40;98903.31;5068808;28;8860;-81
2022/09/14 07:26:52;;;;;;;;;8.80;7.80;;;;;29.74;34.02;98913.41;5052474;28;8958;-84
2022/09/14 07:29:21;;;;;;;;;10.00;9.00;;;;;29.80;34.39;98909.31;5068297;28;8897;-83
2022/09/14 07:31:52;;;;;;;;;9.20;7.60;;;;;29.76;33.70;98907.91;5068023;28;8867;-80
2022/09/14 07:34:24;;;;;;;;;9.40;9.40;;;;;29.82;33.65;98905.47;5068226;28;8992;-81
2022/09/14 07:36:53;;;;;;;;;6.40;6.00;;;;;29.86;33.79;98903.38;5068085;28;8875;-81
2022/09/14 07:39:21;;;;;;;;;9.20;9.20;;;;;29.88;33.25;98904.91;5068186;28;8903;-82
2022/09/14 07:41:50;;;;;;;;;8.40;8.40;;;;;29.89;32.83;98901.25;5056873;28;8846;-80
2022/09/14 07:44:18;;;;;;;;;7.60;7.60;;;;;30.01;32.78;98895.75;5064081;28;8864;-79
2022/09/14 07:46:47;;;;;;;;;9.60;9.60;;;;;30.15;33.28;98889.91;5047760;28;9670;-80
2022/09/14 07:49:17;;;;;;;;;8.20;7.20;;;;;30.23;31.78;98890.06;5066381;28;8881;-80
2022/09/14 07:51:47;;;;;;;;;13.40;12.40;;;;;30.15;32.72;98899.84;5084464;28;8869;-81
2022/09/14 07:54:17;;;;;;;;;7.00;7.00;;;;;30.37;32.89;98896.88;5071145;28;8870;-81
2022/09/14 07:56:49;;;;;;;;;6.80;6.80;;;;;30.46;32.67;98898.72;5067722;28;8851;-82
2022/09/14 07:59:18;;;;;;;;;7.00;7.00;;;;;30.50;31.52;98894.75;5057113;28;8989;-81
2022/09/14 08:02:06;;;;;;;;;9.20;9.20;;;;;30.58;31.11;98891.31;5049244;28;8896;-81
2022/09/14 08:04:35;;;;;;;;;9.20;8.60;;;;;30.62;31.30;98887.34;5049081;28;8945;-82
2022/09/14 08:07:06;;;;;;;;;18.00;16.80;;;;;30.66;30.52;98896.84;5065189;28;8896;-82
2022/09/14 08:09:35;;;;;;;;;9.60;9.60;;;;;30.70;29.83;98900.94;5048303;28;8854;-81
2022/09/14 08:12:04;;;;;;;;;7.20;7.20;;;;;30.71;30.11;98899.09;5065055;28;8946;-79
2022/09/14 08:14:33;;;;;;;;;7.60;6.80;;;;;30.79;29.73;98895.66;5049048;28;8846;-81
2022/09/14 08:17:02;;;;;;;;;7.60;7.00;;;;;30.74;30.13;98892.56;5048506;28;9012;-81
2022/09/14 08:19:30;;;;;;;;;6.00;6.00;;;;;30.75;30.29;98883.50;5048659;28;8850;-78
2022/09/14 08:21:58;;;;;;;;;6.00;5.40;;;;;30.80;30.27;98881.22;5064942;28;8850;-83
2022/09/14 08:24:28;;;;;;;;;8.60;7.80;;;;;30.89;30.18;98888.44;5065127;28;8925;-80
2022/09/14 08:26:57;;;;;;;;;5.00;5.00;;;;;30.96;28.15;98878.78;5051014;28;8948;-82
2022/09/14 08:29:25;;;;;;;;;6.00;5.00;;;;;30.96;27.97;98878.78;5109587;28;8854;-81
2022/09/14 08:31:54;;;;;;;;;3.60;3.60;;;;;31.05;28.26;98868.97;5069106;28;8980;-81
2022/09/14 08:34:23;;;;;;;;;3.00;3.00;;;;;31.02;28.57;98866.56;5070489;28;9604;-85
2022/09/14 08:36:51;;;;;;;;;4.00;4.00;;;;;31.01;27.89;98862.19;5070900;28;8896;-82
2022/09/14 08:39:20;;;;;;;;;4.00;4.00;;;;;31.03;27.93;98862.88;5103416;28;9663;-81
2022/09/14 08:41:54;;;;;;;;;5.00;5.00;;;;;31.16;27.77;98859.84;5071332;28;8873;-78
2022/09/14 08:44:27;;;;;;;;;5.20;4.20;;;;;31.20;27.62;98862.09;5085904;28;8862;-81
2022/09/14 08:47:02;;;;;;;;;6.80;5.60;;;;;31.25;27.80;98845.50;5103145;28;8865;-82
2022/09/14 08:49:46;;;;;;;;;7.00;6.40;;;;;31.24;27.47;98841.94;5051409;28;8889;-82
2022/09/14 08:52:24;;;;;;;;;4.60;4.60;;;;;31.33;28.02;98842.03;5069946;28;8889;-83
2022/09/14 08:54:55;;;;;;;;;5.40;5.00;;;;;31.29;28.06;98838.81;5069561;28;8905;-85
2022/09/14 08:57:33;;;;;;;;;5.80;5.80;;;;;31.45;26.22;98844.34;5070597;28;8865;-83
2022/09/14 09:00:10;;;;;;;;;5.40;5.40;;;;;31.58;26.00;98840.50;5103972;28;8846;-85
2022/09/14 09:03:09;;;;;;;;;4.00;4.00;;;;;31.66;24.76;98851.34;5075307;28;8862;-82
2022/09/14 09:05:46;;;;;;;;;5.60;4.80;;;;;31.27;25.03;98844.34;5107853;28;8880;-82
2022/09/14 09:08:21;;;;;;;;;8.00;7.60;;;;;31.14;24.42;98838.44;5083251;28;8945;-78
2022/09/14 09:10:53;;;;;;;;;5.40;4.40;;;;;30.94;25.01;98831.47;5069194;28;8843;-82
2022/09/14 09:13:29;;;;;;;;;3.20;3.20;;;;;31.09;25.26;98840.75;5107413;28;8865;-80
2022/09/14 09:16:00;;;;;;;;;8.80;8.60;;;;;31.31;25.44;98844.03;5074632;28;8985;-84
2022/09/14 09:18:37;;;;;;;;;3.60;3.00;;;;;31.37;25.14;98840.75;5077096;28;8850;-81
2022/09/14 09:21:10;;;;;;;;;4.00;4.00;;;;;31.46;25.08;98838.00;5074411;28;8865;-80
2022/09/14 09:23:41;;;;;;;;;4.20;4.20;;;;;31.63;25.49;98832.81;5055199;28;8886;-81
2022/09/14 09:26:16;;;;;;;;;5.00;4.00;;;;;31.45;25.10;98840.81;5106357;28;8845;-81
2022/09/14 09:28:49;;;;;;;;;9.20;9.00;;;;;31.24;25.96;98849.16;5072833;28;8973;-82
2022/09/14 09:31:22;;;;;;;;;5.60;5.00;;;;;31.36;26.02;98836.34;5106128;28;8843;-82
2022/09/14 09:34:16;;;;;;;;;5.40;4.40;;;;;31.23;27.24;98836.69;5069693;28;8884;-82
2022/09/14 09:36:48;;;;;;;;;5.40;5.40;;;;;31.43;26.80;98830.19;5083435;28;8951;-81
2022/09/14 09:39:17;;;;;;;;;6.20;6.00;;;;;31.63;26.94;98830.09;5066791;28;8926;-83
2022/09/14 09:41:51;;;;;;;;;17.60;17.60;;;;;31.73;27.11;98827.31;5009884;28;8843;-80
2022/09/14 09:44:21;;;;;;;;;9.00;9.00;;;;;31.60;27.52;98820.44;5027222;28;8989;-82
2022/09/14 09:46:53;;;;;;;;;5.00;5.00;;;;;31.38;28.00;98819.03;5043179;28;9629;-83
2022/09/14 09:49:25;;;;;;;;;7.20;7.20;;;;;31.15;28.58;98820.44;5010431;28;9614;-81
2022/09/14 09:51:56;;;;;;;;;7.00;7.00;;;;;31.07;28.74;98822.03;5028700;28;8867;-82
2022/09/14 09:54:29;;;;;;;;;5.20;5.00;;;;;31.26;28.71;98818.38;5031465;28;8855;-82
2022/09/14 09:57:00;;;;;;;;;4.80;4.80;;;;;31.19;28.82;98819.13;5070501;28;8854;-82
2022/09/14 09:59:34;;;;;;;;;6.60;6.40;;;;;31.42;29.06;98811.50;5053033;28;9714;-80
2022/09/14 10:02:22;;;;;;;;;5.20;5.20;;;;;31.72;28.95;98813.00;5038216;28;8876;-80
2022/09/14 10:05:00;;;;;;;;;7.00;5.40;;;;;31.87;28.24;98805.19;5071764;28;9755;-81
2022/09/14 10:07:31;;;;;;;;;6.20;5.20;;;;;31.91;28.41;98808.44;5072086;28;8851;-80
2022/09/14 10:10:02;;;;;;;;;8.40;8.40;;;;;32.03;28.46;98793.75;5070959;28;9013;-80
2022/09/14 10:12:32;;;;;;;;;5.40;5.40;;;;;31.93;27.18;98798.31;5071301;28;8983;-82
2022/09/14 10:15:15;;;;;;;;;6.00;6.00;;;;;31.82;27.31;98800.28;5071068;28;8914;-81
2022/09/14 10:18:04;;;;;;;;;7.40;6.40;;;;;32.02;28.19;98801.00;5031101;28;8919;-81
2022/09/14 10:20:33;;;;;;;;;6.00;6.00;;;;;32.10;27.23;98794.81;5016455;28;8987;-83
2022/09/14 10:23:21;;;;;;;;;7.00;7.00;;;;;32.37;27.45;98798.38;5045910;28;9722;-81
2022/09/14 10:25:51;;;;;;;;;8.20;7.40;;;;;32.40;27.14;98801.59;4983168;28;8865;-84
2022/09/14 10:28:26;;;;;;;;;4.80;4.80;;;;;32.54;25.88;98792.06;5001591;28;8962;-82
2022/09/14 10:31:01;;;;;;;;;5.80;5.20;;;;;32.70;24.28;98806.69;5025669;28;8856;-83
2022/09/14 10:33:31;;;;;;;;;4.80;3.80;;;;;32.35;24.71;98795.81;5025358;28;8863;-82
2022/09/14 10:36:08;;;;;;;;;4.40;4.20;;;;;32.32;24.95;98798.00;5009492;28;8987;-81
2022/09/14 10:38:41;;;;;;;;;4.80;4.80;;;;;32.20;24.82;98795.56;5027301;28;8862;-81
2022/09/14 10:41:23;;;;;;;;;5.20;5.20;;;;;32.33;25.17;98799.69;5041260;28;8943;-82
2022/09/14 10:44:21;;;;;;;;;5.00;4.40;;;;;32.62;24.37;98807.47;5068277;28;9658;-82
2022/09/14 10:47:02;;;;;;;;;3.80;3.80;;;;;32.77;23.91;98796.94;5100929;28;8870;-81
2022/09/14 10:49:48;;;;;;;;;3.40;3.40;;;;;32.81;23.30;98796.44;5067027;28;8866;-81
2022/09/14 10:52:24;;;;;;;;;2.40;2.40;;;;;32.94;22.89;98797.84;5100498;28;8866;-81
2022/09/14 10:55:07;;;;;;;;;4.60;4.60;;;;;32.82;23.22;98802.69;5083911;28;8854;-82
2022/09/14 10:57:44;;;;;;;;;5.20;5.20;;;;;33.21;23.83;98803.06;5070303;28;8976;-80
2022/09/14 11:00:17;;;;;;;;;2.80;2.80;;;;;33.21;22.55;98800.34;5071606;28;8861;-80
2022/09/14 11:03:03;;;;;;;;;3.00;2.60;;;;;33.65;22.70;98793.88;5070127;28;8891;-81
2022/09/14 11:05:37;;;;;;;;;7.80;7.80;;;;;33.92;23.59;98803.53;5071977;28;8873;-81
2022/09/14 11:08:15;;;;;;;;;4.00;3.80;;;;;34.04;21.79;98795.06;5037226;28;8850;-82
2022/09/14 11:11:03;;;;;;;;;3.80;3.80;;;;;34.09;20.71;98792.69;5071758;28;8827;-82
2022/09/14 11:13:49;;;;;;;;;3.80;2.60;;;;;34.34;21.03;98793.53;5055383;28;9012;-80
2022/09/14 11:16:36;;;;;;;;;6.20;5.20;;;;;34.42;20.63;98798.91;5089264;28;8826;-81
2022/09/14 11:19:20;;;;;;;;;4.40;4.40;;;;;34.61;21.03;98807.69;5072539;28;8858;-82
2022/09/14 11:22:01;;;;;;;;;3.40;3.40;;;;;34.80;20.86;98818.16;5080656;28;8964;-81
2022/09/14 11:24:38;;;;;;;;;2.80;2.80;;;;;34.92;20.52;98821.34;5070594;28;8970;-81
2022/09/14 11:27:15;;;;;;;;;0.00;0.00;;;;;35.12;21.03;98821.75;5087032;28;8842;-83
2022/09/14 11:29:49;;;;;;;;;3.00;2.40;;;;;35.27;20.87;98820.00;5070237;28;9658;-81
2022/09/14 11:32:22;;;;;;;;;3.00;3.00;;;;;34.91;21.13;98825.91;5035117;28;8865;-82
2022/09/14 11:34:56;;;;;;;;;3.00;2.00;;;;;35.04;21.21;98833.47;5053273;28;8854;-81
2022/09/14 11:37:32;;;;;;;;;2.00;2.00;;;;;35.09;20.94;98830.25;5072614;28;8851;-84
2022/09/14 11:40:09;;;;;;;;;4.00;3.80;;;;;34.99;20.88;98830.44;5052744;28;8861;-83
2022/09/14 11:42:45;;;;;;;;;6.00;5.60;;;;;34.85;20.94;98834.72;5053110;28;8847;-81
2022/09/14 11:45:19;;;;;;;;;3.60;3.60;;;;;35.16;21.52;98839.34;5039371;28;8865;-82
2022/09/14 11:47:57;;;;;;;;;3.00;3.00;;;;;35.31;21.34;98831.34;5075377;28;8997;-81
2022/09/14 11:50:30;;;;;;;;;4.80;2.40;;;;;35.63;21.69;98830.28;5055052;28;8894;-80
2022/09/14 11:53:16;;;;;;;;;3.00;3.00;;;;;35.98;21.14;98840.78;5036918;28;8885;-80
2022/09/14 11:55:47;;;;;;;;;3.40;2.40;;;;;36.19;21.00;98837.41;5054226;28;8861;-83
2022/09/14 11:58:20;;;;;;;;;0.40;0.40;;;;;35.61;21.09;98832.34;5070343;28;8884;-83
2022/09/14 12:01:23;;;;;;;;;4.60;2.80;;;;;35.87;20.59;98837.47;5052931;28;8854;-80
2022/09/14 12:04:13;;;;;;;;;3.60;2.60;;;;;35.86;21.20;98832.22;5071423;28;8850;-82